Time;durP1;ratioP1;P1;durP2;ratioP2;P2;SDS_P1;SDS_P2;PMS_P1;PMS_P2;Temp;Humidity;BMP_temperature;BMP_pressure;BME280_temperature;BME280_humidity;BME280_pressure;Samples;Min_cycle;Max_cycle;Signal;HPM_P1;HPM_P2
2022/02/21 00:00:16;;;;;;;34.85;14.23;;;;;;;5.41;84.29;97036.38;5044213;28;20053;-59
2022/02/21 00:02:45;;;;;;;35.40;15.98;;;;;;;5.54;84.67;97043.53;5046053;28;20157;-59
2022/02/21 00:05:16;;;;;;;35.83;15.50;;;;;;;5.64;83.95;97054.88;5045691;28;20140;-59
2022/02/21 00:07:44;;;;;;;35.20;16.02;;;;;;;5.65;83.76;97063.94;5043675;28;20462;-56
2022/02/21 00:10:11;;;;;;;33.55;16.52;;;;;;;5.75;84.44;97041.53;5045298;28;20059;-59
2022/02/21 00:12:39;;;;;;;35.08;14.80;;;;;;;5.73;84.87;97050.13;5045149;28;20435;-59
2022/02/21 00:15:07;;;;;;;29.88;11.95;;;;;;;5.77;84.40;97042.78;5045437;28;20057;-55
2022/02/21 00:17:34;;;;;;;25.80;11.35;;;;;;;5.83;83.34;97029.69;5045078;28;20076;-58
2022/02/21 00:20:01;;;;;;;29.20;12.10;;;;;;;5.00;83.36;96916.44;5043634;28;20064;-60
2022/02/21 00:22:28;;;;;;;26.30;10.50;;;;;;;5.68;83.51;97024.78;5044889;28;20049;-59
2022/02/21 00:24:55;;;;;;;17.02;8.02;;;;;;;5.66;83.54;97033.38;5044817;28;20068;-59
2022/02/21 00:27:22;;;;;;;19.77;8.48;;;;;;;5.70;84.01;97025.25;5044985;28;20045;-59
2022/02/21 00:29:49;;;;;;;20.65;8.15;;;;;;;5.77;83.06;97022.78;5045044;28;20068;-56
2022/02/21 00:32:16;;;;;;;18.42;9.43;;;;;;;5.72;82.65;97012.00;5044807;28;20451;-57
2022/02/21 00:34:42;;;;;;;18.83;8.15;;;;;;;5.84;82.90;97023.84;5044659;28;20053;-56
2022/02/21 00:37:09;;;;;;;18.25;8.10;;;;;;;6.03;81.92;97017.81;5044332;28;20053;-56
2022/02/21 00:39:36;;;;;;;28.42;10.60;;;;;;;5.97;82.78;97022.72;5044511;28;20565;-59
2022/02/21 00:42:04;;;;;;;23.88;10.85;;;;;;;5.93;82.91;97031.97;5025002;28;20049;-56
2022/02/21 00:44:31;;;;;;;22.50;11.35;;;;;;;5.52;82.99;96936.72;5024966;28;20053;-55
2022/02/21 00:47:00;;;;;;;27.25;11.02;;;;;;;6.04;83.21;97000.16;5024476;28;20068;-60
2022/02/21 00:49:27;;;;;;;24.38;10.57;;;;;;;6.15;83.18;96998.56;5023191;28;20140;-60
2022/02/21 00:51:54;;;;;;;26.02;9.98;;;;;;;6.05;84.31;96980.56;5039606;28;20045;-59
2022/02/21 00:54:20;;;;;;;18.50;9.23;;;;;;;5.32;91.04;96999.94;5024752;28;20119;-56
2022/02/21 00:56:47;;;;;;;21.02;9.95;;;;;;;5.44;92.19;96986.25;5024049;28;20049;-59
2022/02/21 00:59:14;;;;;;;26.77;9.38;;;;;;;5.41;93.09;96987.75;5024472;28;20053;-59
2022/02/21 01:01:40;;;;;;;20.15;9.30;;;;;;;5.46;92.56;96994.97;5023954;28;20467;-60
2022/02/21 01:04:07;;;;;;;19.80;9.20;;;;;;;5.14;93.60;96987.53;5024450;28;20154;-60
2022/02/21 01:06:34;;;;;;;21.95;9.88;;;;;;;5.06;95.61;97002.13;5024666;28;20053;-59
2022/02/21 01:09:00;;;;;;;21.02;8.50;;;;;;;5.14;95.37;97004.00;5022846;28;20503;-61
2022/02/21 01:11:30;;;;;;;17.70;8.88;;;;;;;4.81;95.85;96994.88;5024206;28;20132;-60
2022/02/21 01:13:58;;;;;;;17.35;7.85;;;;;;;3.87;100.00;96949.66;5023798;28;20057;-59
2022/02/21 01:16:26;;;;;;;14.48;6.68;;;;;;;3.86;100.00;97013.81;5022805;28;20057;-60
2022/02/21 01:18:52;;;;;;;17.40;7.50;;;;;;;3.73;100.00;97014.81;5024071;28;20408;-56
2022/02/21 01:21:19;;;;;;;20.20;8.48;;;;;;;3.50;100.00;96914.06;5023904;28;20076;-59
2022/02/21 01:23:46;;;;;;;20.70;7.47;;;;;;;4.06;100.00;97002.13;5024287;28;20432;-59
2022/02/21 01:26:13;;;;;;;15.63;8.10;;;;;;;3.85;100.00;96941.00;5024070;28;20056;-60
2022/02/21 01:28:40;;;;;;;17.67;7.85;;;;;;;4.08;100.00;96947.78;5023972;28;20050;-60
2022/02/21 01:31:06;;;;;;;18.77;9.15;;;;;;;4.55;100.00;97037.00;5024065;28;20053;-56
2022/02/21 01:33:33;;;;;;;24.58;10.32;;;;;;;4.72;99.62;97008.69;5023658;28;20049;-60
2022/02/21 01:36:00;;;;;;;24.38;10.23;;;;;;;4.74;99.00;96989.16;5023575;28;20440;-60
2022/02/21 01:38:27;;;;;;;21.60;9.40;;;;;;;4.87;99.20;96996.31;5023397;28;20057;-60
2022/02/21 01:40:53;;;;;;;27.40;12.07;;;;;;;4.53;98.70;96946.06;5033501;28;20059;-61
2022/02/21 01:43:20;;;;;;;28.15;12.57;;;;;;;4.94;98.58;96977.34;5043905;28;20131;-56
2022/02/21 01:45:47;;;;;;;27.90;12.50;;;;;;;4.92;97.85;96974.13;5042309;28;20132;-60
2022/02/21 01:48:14;;;;;;;29.65;11.00;;;;;;;4.92;97.72;96974.94;5043597;28;20049;-59
2022/02/21 01:50:42;;;;;;;27.48;11.77;;;;;;;5.09;97.52;96979.50;5043445;28;20278;-57
2022/02/21 01:53:10;;;;;;;27.58;12.45;;;;;;;4.96;96.47;96931.19;5043797;28;20048;-57
2022/02/21 01:55:37;;;;;;;28.52;13.43;;;;;;;5.19;94.97;96954.34;5041752;28;20045;-59
2022/02/21 01:58:07;;;;;;;28.98;12.35;;;;;;;5.36;95.37;96978.94;5041580;28;20053;-57
2022/02/21 02:00:33;;;;;;;26.50;13.13;;;;;;;5.11;94.91;96927.78;5042375;28;20057;-57
2022/02/21 02:03:00;;;;;;;28.90;13.45;;;;;;;5.50;94.29;96979.44;5043386;28;20057;-61
2022/02/21 02:05:27;;;;;;;22.17;12.05;;;;;;;4.89;94.34;96870.53;5043314;28;20044;-57
2022/02/21 02:07:54;;;;;;;22.55;12.80;;;;;;;5.57;94.07;96957.69;5043260;28;20140;-58
2022/02/21 02:10:22;;;;;;;32.03;13.75;;;;;;;5.37;94.37;96939.31;5043206;28;20067;-60
2022/02/21 02:12:48;;;;;;;31.33;12.57;;;;;;;4.94;95.28;96892.28;5044148;28;20057;-57
2022/02/21 02:15:17;;;;;;;29.60;10.93;;;;;;;4.91;95.50;96862.78;5047264;28;20053;-60
2022/02/21 02:17:43;;;;;;;25.48;9.85;;;;;;;5.66;94.86;96959.19;5047732;28;20436;-57
2022/02/21 02:20:12;;;;;;;24.67;11.93;;;;;;;5.07;93.90;96874.72;5047341;28;20053;-58
2022/02/21 02:22:40;;;;;;;31.98;12.82;;;;;;;5.59;93.76;96938.91;5045325;28;20072;-59
2022/02/21 02:25:07;;;;;;;28.50;12.50;;;;;;;5.61;93.81;96948.41;5047392;28;20471;-59
2022/02/21 02:27:34;;;;;;;27.92;12.35;;;;;;;5.84;91.36;96943.34;5047666;28;20053;-60
2022/02/21 02:30:04;;;;;;;29.08;10.30;;;;;;;5.83;90.44;96926.03;5047183;28;20057;-59
2022/02/21 02:32:31;;;;;;;23.90;10.05;;;;;;;5.85;90.74;96934.75;5045671;28;20111;-57
2022/02/21 02:34:58;;;;;;;36.78;14.57;;;;;;;5.82;90.98;96915.38;5045278;28;20056;-60
2022/02/21 02:37:26;;;;;;;28.48;12.32;;;;;;;5.92;92.07;96925.94;5046511;28;20053;-56
2022/02/21 02:39:53;;;;;;;31.85;15.30;;;;;;;5.96;92.60;96935.91;5046031;28;20053;-58
2022/02/21 02:42:20;;;;;;;28.05;10.60;;;;;;;5.86;91.99;96933.59;5027448;28;20295;-56
2022/02/21 02:44:47;;;;;;;23.70;10.77;;;;;;;5.81;91.80;96924.75;5027009;28;20049;-60
2022/02/21 02:47:14;;;;;;;28.67;15.02;;;;;;;5.83;92.27;96928.00;5026661;28;20045;-60
2022/02/21 02:49:43;;;;;;;20.92;10.07;;;;;;;5.94;90.28;96929.16;5026761;28;20054;-57
2022/02/21 02:52:10;;;;;;;23.75;10.95;;;;;;;5.83;91.10;96936.25;5026803;28;20063;-59
2022/02/21 02:54:37;;;;;;;24.42;10.73;;;;;;;5.90;91.59;96931.78;5026400;28;20127;-59
2022/02/21 02:57:04;;;;;;;24.92;11.40;;;;;;;5.97;91.22;96944.94;5026608;28;20050;-55
2022/02/21 02:59:31;;;;;;;26.58;10.50;;;;;;;5.89;91.77;96921.13;5026791;28;20064;-56
2022/02/21 03:01:58;;;;;;;25.90;11.20;;;;;;;5.96;92.90;96943.31;5025363;28;20049;-60
2022/02/21 03:04:24;;;;;;;21.88;10.80;;;;;;;6.02;93.21;96930.97;5026318;28;20068;-59
2022/02/21 03:06:51;;;;;;;56.35;25.55;;;;;;;6.00;92.67;96922.25;5026270;28;20064;-60
2022/02/21 03:09:18;;;;;;;28.23;14.27;;;;;;;6.15;92.39;96936.13;5025018;28;20059;-60
2022/02/21 03:11:45;;;;;;;39.70;17.17;;;;;;;6.12;91.96;96927.75;5026717;28;20057;-57
2022/02/21 03:14:11;;;;;;;29.38;14.15;;;;;;;6.04;92.02;96931.41;5026288;28;20045;-57
2022/02/21 03:16:38;;;;;;;23.73;12.30;;;;;;;5.92;92.52;96931.44;5026708;28;20374;-59
2022/02/21 03:19:05;;;;;;;31.77;13.15;;;;;;;5.71;92.84;96914.19;5026754;28;20453;-56
2022/02/21 03:21:32;;;;;;;29.80;13.32;;;;;;;5.88;92.56;96933.28;5026803;28;20056;-59
2022/02/21 03:23:58;;;;;;;26.27;13.75;;;;;;;5.86;91.94;96925.34;5025790;28;20162;-60
2022/02/21 03:26:25;;;;;;;28.85;13.18;;;;;;;5.81;91.72;96930.25;5026025;28;20060;-57
2022/02/21 03:28:52;;;;;;;19.45;9.25;;;;;;;5.51;93.23;96920.59;5025863;28;20566;-58
2022/02/21 03:31:19;;;;;;;26.42;9.70;;;;;;;5.37;94.33;96926.41;5026031;28;20045;-56
2022/02/21 03:33:46;;;;;;;25.77;11.80;;;;;;;5.42;94.59;96925.38;5026000;28;20439;-62
2022/02/21 03:36:13;;;;;;;22.98;11.93;;;;;;;5.12;94.40;96880.00;5023915;28;20053;-59
2022/02/21 03:38:40;;;;;;;27.25;11.65;;;;;;;5.22;95.25;96917.97;5026077;28;20049;-61
2022/02/21 03:41:06;;;;;;;25.90;10.93;;;;;;;5.14;95.47;96910.66;5036600;28;20049;-57
2022/02/21 03:43:33;;;;;;;23.48;11.50;;;;;;;5.28;95.30;96928.41;5046316;28;20083;-59
2022/02/21 03:46:00;;;;;;;36.85;13.00;;;;;;;5.39;93.41;96917.81;5046060;28;20133;-57
2022/02/21 03:48:27;;;;;;;66.15;22.98;;;;;;;5.45;92.82;96921.94;5045167;28;20053;-60
2022/02/21 03:50:53;;;;;;;78.35;27.23;;;;;;;5.36;92.19;96902.03;5045726;28;20512;-56
2022/02/21 03:53:20;;;;;;;139.63;50.55;;;;;;;5.39;92.52;96928.81;5045684;28;20056;-59
2022/02/21 03:55:47;;;;;;;165.30;60.45;;;;;;;5.37;94.23;96925.59;4697236;28;10000101;-60
2022/02/21 03:58:14;;;;;;;114.25;50.85;;;;;;;5.39;94.21;96920.56;5045345;28;20060;-59
2022/02/21 04:00:40;;;;;;;47.25;23.02;;;;;;;5.41;94.78;96915.53;5045583;28;20045;-59
2022/02/21 04:03:07;;;;;;;40.08;19.15;;;;;;;5.18;94.75;96873.16;5045034;28;20566;-60
2022/02/21 04:05:34;;;;;;;39.95;18.25;;;;;;;5.48;94.14;96910.28;5043657;28;20394;-59
2022/02/21 04:08:01;;;;;;;53.78;25.83;;;;;;;5.55;93.43;96905.00;5045625;28;20052;-56
2022/02/21 04:10:27;;;;;;;47.85;20.02;;;;;;;5.41;94.43;96894.34;5045743;28;20051;-59
2022/02/21 04:12:54;;;;;;;40.10;17.80;;;;;;;5.38;94.32;96910.72;5043642;28;20060;-60
2022/02/21 04:15:21;;;;;;;41.53;16.48;;;;;;;5.35;94.06;96906.72;5043274;28;20049;-61
2022/02/21 04:17:50;;;;;;;44.33;17.52;;;;;;;4.74;94.43;96824.53;5045202;28;20045;-56
2022/02/21 04:20:19;;;;;;;42.47;15.52;;;;;;;5.40;93.11;96900.19;5044671;28;20063;-60
2022/02/21 04:22:47;;;;;;;34.22;13.18;;;;;;;5.35;91.86;96906.72;5045248;28;20064;-55
2022/02/21 04:25:14;;;;;;;35.20;15.38;;;;;;;5.10;92.87;96882.28;5044616;28;20442;-59
2022/02/21 04:27:45;;;;;;;30.98;12.50;;;;;;;5.21;94.01;96905.41;5044749;28;20052;-59
2022/02/21 04:30:15;;;;;;;30.00;13.00;;;;;;;5.35;92.69;96900.41;5043788;28;20049;-59
2022/02/21 04:32:43;;;;;;;34.08;14.27;;;;;;;5.31;92.12;96892.03;5045401;28;20052;-60
2022/02/21 04:35:10;;;;;;;36.10;15.15;;;;;;;4.90;96.32;96894.09;5045071;28;20538;-58
2022/02/21 04:37:37;;;;;;;30.55;13.50;;;;;;;4.96;96.48;96888.06;5044415;28;20424;-59
2022/02/21 04:40:07;;;;;;;47.15;18.63;;;;;;;5.04;95.61;96895.44;5042615;28;20055;-60
2022/02/21 04:42:34;;;;;;;38.28;16.85;;;;;;;4.68;95.42;96852.19;5024914;28;20893;-60
2022/02/21 04:45:02;;;;;;;47.58;18.70;;;;;;;5.01;95.81;96884.31;5024757;28;20063;-59
2022/02/21 04:47:28;;;;;;;39.67;19.00;;;;;;;5.05;95.35;96879.75;5024712;28;20094;-58
2022/02/21 04:49:55;;;;;;;38.97;16.73;;;;;;;5.02;95.81;96883.16;5024701;28;20053;-59
2022/02/21 04:52:22;;;;;;;39.33;16.92;;;;;;;4.53;95.58;96797.97;5024590;28;20054;-59
2022/02/21 04:54:48;;;;;;;36.80;17.17;;;;;;;5.04;95.16;96878.16;5024615;28;20491;-57
2022/02/21 04:57:15;;;;;;;45.38;21.02;;;;;;;4.82;95.29;96851.09;5024371;28;20523;-59
2022/02/21 04:59:42;;;;;;;48.20;23.00;;;;;;;4.80;95.70;96862.41;5024271;28;20053;-60
2022/02/21 05:02:09;;;;;;;49.03;21.30;;;;;;;4.79;95.75;96888.22;5022976;28;20045;-56
2022/02/21 05:04:35;;;;;;;38.17;19.42;;;;;;;3.69;96.14;96714.53;5023973;28;20479;-58
2022/02/21 05:07:13;;;;;;;42.05;20.08;;;;;;;4.52;97.55;96873.13;5024111;28;20064;-57
2022/02/21 05:09:40;;;;;;;42.83;21.35;;;;;;;3.71;98.28;96776.09;5023791;28;20103;-59
2022/02/21 05:12:07;;;;;;;45.70;20.52;;;;;;;4.45;98.17;96870.13;5023907;28;20049;-57
2022/02/21 05:14:34;;;;;;;38.58;19.40;;;;;;;4.41;98.34;96874.69;5023671;28;20064;-59
2022/02/21 05:17:00;;;;;;;40.80;19.00;;;;;;;3.65;98.16;96782.88;5024291;28;20053;-60
2022/02/21 05:19:27;;;;;;;42.20;20.88;;;;;;;4.40;98.37;96870.34;5024077;28;20057;-57
2022/02/21 05:21:55;;;;;;;45.22;21.83;;;;;;;3.73;98.91;96783.97;5023644;28;20058;-59
2022/02/21 05:24:21;;;;;;;34.03;15.18;;;;;;;4.08;100.00;96884.75;5024031;28;20053;-57
2022/02/21 05:26:48;;;;;;;36.00;17.73;;;;;;;4.12;100.00;96861.03;5024141;28;20076;-60
2022/02/21 05:29:15;;;;;;;34.05;16.77;;;;;;;4.33;99.93;96979.72;5022430;28;20516;-60
2022/02/21 05:31:42;;;;;;;42.65;19.90;;;;;;;4.34;99.11;96890.88;5023940;28;20053;-56
2022/02/21 05:34:09;;;;;;;42.60;20.42;;;;;;;4.30;99.13;96870.72;5024445;28;20068;-61
2022/02/21 05:36:35;;;;;;;44.63;20.67;;;;;;;4.44;98.67;96887.72;5023588;28;20473;-56
2022/02/21 05:39:03;;;;;;;60.72;28.05;;;;;;;4.57;98.17;96888.56;5023807;28;20053;-60
2022/02/21 05:41:29;;;;;;;137.50;49.70;;;;;;;4.37;97.38;96873.75;5036790;28;20436;-59
2022/02/21 05:44:00;;;;;;;132.02;53.75;;;;;;;4.62;97.05;96894.69;5023140;28;20460;-58
2022/02/21 05:46:27;;;;;;;116.60;44.13;;;;;;;3.40;96.19;96715.41;5005689;28;20056;-63
2022/02/21 05:48:54;;;;;;;105.93;39.67;;;;;;;4.57;96.41;96892.13;5005314;28;20068;-60
2022/02/21 05:51:21;;;;;;;98.13;36.95;;;;;;;4.74;95.48;96890.38;5023608;28;20045;-57
2022/02/21 05:53:49;;;;;;;99.53;38.67;;;;;;;4.82;94.87;96889.50;5022599;28;20053;-57
2022/02/21 05:56:16;;;;;;;53.63;24.48;;;;;;;4.94;92.75;96889.53;5023234;28;20081;-58
2022/02/21 05:58:43;;;;;;;55.15;26.35;;;;;;;4.80;92.87;96858.84;5022781;28;20057;-59
2022/02/21 06:01:10;;;;;;;63.67;27.25;;;;;;;5.05;92.84;96887.97;5023821;28;20480;-60
2022/02/21 06:03:41;;;;;;;47.35;22.15;;;;;;;4.56;91.76;96786.31;5023082;28;20610;-57
2022/02/21 06:06:08;;;;;;;41.50;18.48;;;;;;;5.22;91.99;96874.06;5022056;28;20492;-59
2022/02/21 06:08:35;;;;;;;39.75;19.77;;;;;;;5.34;92.26;96865.84;5023007;28;20504;-60
2022/02/21 06:11:02;;;;;;;67.03;30.02;;;;;;;5.35;91.49;96840.00;5023494;28;20115;-59
2022/02/21 06:13:28;;;;;;;51.67;23.65;;;;;;;5.61;90.19;96855.00;5022911;28;20052;-59
2022/02/21 06:15:55;;;;;;;46.20;20.73;;;;;;;5.10;89.74;96766.97;5023315;28;20052;-61
2022/02/21 06:18:22;;;;;;;42.83;20.75;;;;;;;5.81;89.77;96869.78;5023175;28;20069;-58
2022/02/21 06:20:48;;;;;;;50.25;23.55;;;;;;;5.93;88.94;96862.38;5023507;28;20053;-58
2022/02/21 06:23:15;;;;;;;48.10;23.67;;;;;;;5.80;88.16;96826.97;5023167;28;20056;-59
2022/02/21 06:25:43;;;;;;;38.08;19.05;;;;;;;5.71;86.55;96804.28;5023308;28;20061;-59
2022/02/21 06:28:11;;;;;;;35.53;17.25;;;;;;;6.06;86.93;96863.16;5022533;28;20576;-57
2022/02/21 06:30:38;;;;;;;43.25;18.45;;;;;;;6.06;87.98;96844.72;5021148;28;20500;-58
2022/02/21 06:33:05;;;;;;;40.90;18.52;;;;;;;4.64;87.44;96601.66;5022725;28;20112;-57
2022/02/21 06:35:32;;;;;;;32.80;16.55;;;;;;;6.24;88.53;96861.75;5023167;28;20057;-59
2022/02/21 06:37:59;;;;;;;32.97;16.95;;;;;;;6.50;86.74;96853.88;5016611;28;20517;-59
2022/02/21 06:40:28;;;;;;;34.67;17.55;;;;;;;6.69;86.64;96851.31;5004764;28;20060;-59
2022/02/21 06:42:55;;;;;;;35.53;17.98;;;;;;;6.35;86.26;96807.06;5042013;28;20064;-57
2022/02/21 06:45:23;;;;;;;35.55;19.90;;;;;;;6.93;84.80;96839.38;5031267;28;20053;-59
2022/02/21 06:47:51;;;;;;;38.72;19.55;;;;;;;6.84;85.04;96797.44;5019101;28;20053;-61
2022/02/21 06:50:21;;;;;;;50.90;22.25;;;;;;;6.98;83.91;96776.59;5021215;28;20053;-62
2022/02/21 06:52:48;;;;;;;42.95;20.88;;;;;;;7.65;82.67;96845.22;5021666;28;20057;-59
2022/02/21 06:55:15;;;;;;;32.63;15.95;;;;;;;7.28;81.74;96775.03;5021374;28;20906;-56
2022/02/21 06:57:48;;;;;;;36.45;18.15;;;;;;;7.99;81.32;96838.19;5025425;28;20132;-60
2022/02/21 07:00:16;;;;;;;46.47;22.45;;;;;;;8.19;80.06;96839.03;5027904;28;20059;-60
2022/02/21 07:02:43;;;;;;;34.08;15.95;;;;;;;7.20;80.25;96773.25;5035329;28;20046;-61
2022/02/21 07:05:10;;;;;;;33.53;16.33;;;;;;;7.61;81.74;96822.31;5026533;28;20497;-58
2022/02/21 07:07:37;;;;;;;32.28;15.73;;;;;;;7.26;79.86;96730.50;5026548;28;20049;-56
2022/02/21 07:10:06;;;;;;;28.55;15.20;;;;;;;7.96;79.97;96838.09;5011081;28;20058;-59
2022/02/21 07:12:33;;;;;;;29.63;17.90;;;;;;;8.26;80.13;96841.97;5006628;28;20148;-58
2022/02/21 07:15:00;;;;;;;26.77;14.45;;;;;;;8.39;78.72;96821.38;5006002;28;20062;-60
2022/02/21 07:17:27;;;;;;;26.48;13.25;;;;;;;7.88;79.13;96778.41;5011742;28;20041;-58
2022/02/21 07:19:55;;;;;;;24.00;12.90;;;;;;;8.23;79.85;96826.13;5020378;28;20187;-61
2022/02/21 07:22:24;;;;;;;24.80;12.60;;;;;;;8.50;78.71;96825.16;5019814;28;20073;-60
2022/02/21 07:24:51;;;;;;;24.88;12.48;;;;;;;8.76;76.50;96834.41;5031335;28;20567;-58
2022/02/21 07:27:17;;;;;;;39.95;13.77;;;;;;;7.69;75.45;96636.63;5021175;28;20409;-60
2022/02/21 07:29:44;;;;;;;23.77;10.80;;;;;;;8.97;75.12;96822.97;5022991;28;20061;-57
2022/02/21 07:32:11;;;;;;;21.33;11.00;;;;;;;9.11;73.95;96795.59;5025628;28;20053;-60
2022/02/21 07:34:38;;;;;;;22.27;11.25;;;;;;;9.39;73.01;96811.91;5025425;28;20053;-60
2022/02/21 07:37:06;;;;;;;23.08;11.38;;;;;;;9.56;72.64;96814.19;5025365;28;20056;-58
2022/02/21 07:39:33;;;;;;;24.52;13.20;;;;;;;9.54;72.07;96791.63;5023751;28;20053;-58
2022/02/21 07:42:00;;;;;;;22.65;10.73;;;;;;;9.90;70.90;96804.84;5019769;28;20065;-60
2022/02/21 07:44:27;;;;;;;20.17;10.00;;;;;;;9.93;71.04;96798.56;5017817;28;20046;-59
2022/02/21 07:46:54;;;;;;;26.70;15.05;;;;;;;9.98;71.33;96773.38;5019266;28;20596;-57
2022/02/21 07:49:23;;;;;;;23.92;10.88;;;;;;;10.56;67.90;96794.78;5025436;28;20056;-62
2022/02/21 07:51:50;;;;;;;19.55;10.60;;;;;;;10.65;68.25;96795.28;5018562;28;20072;-61
2022/02/21 07:54:17;;;;;;;20.52;10.80;;;;;;;9.58;68.62;96660.56;5011668;28;20052;-57
2022/02/21 07:57:06;;;;;;;21.30;10.35;;;;;;;10.38;67.60;96741.16;5014207;28;20428;-56
2022/02/21 07:59:33;;;;;;;23.88;11.13;;;;;;;10.90;67.31;96780.94;5018580;28;20053;-59
2022/02/21 08:02:00;;;;;;;25.23;12.13;;;;;;;9.67;67.79;96697.06;5014166;28;20515;-57
2022/02/21 08:04:27;;;;;;;24.60;13.48;;;;;;;10.83;66.94;96781.66;5015373;28;20075;-63
2022/02/21 08:06:54;;;;;;;22.98;11.63;;;;;;;10.59;64.06;96672.16;5006077;28;20049;-60
2022/02/21 08:09:20;;;;;;;21.40;11.30;;;;;;;11.31;63.95;96727.13;5008436;28;20049;-63
2022/02/21 08:11:48;;;;;;;20.92;10.95;;;;;;;11.27;61.10;96640.34;5030286;28;20287;-56
2022/02/21 08:14:15;;;;;;;23.45;9.82;;;;;;;11.99;60.40;96755.03;5023809;28;20061;-58
2022/02/21 08:16:42;;;;;;;20.30;8.63;;;;;;;11.13;61.87;96712.31;5019085;28;20094;-58
2022/02/21 08:19:10;;;;;;;17.52;8.90;;;;;;;12.22;59.83;96736.13;5004972;28;20053;-61
2022/02/21 08:21:37;;;;;;;14.20;8.50;;;;;;;12.49;57.66;96743.03;5005246;28;20388;-61
2022/02/21 08:24:06;;;;;;;18.48;8.88;;;;;;;12.41;59.23;96727.50;5004522;28;20054;-60
2022/02/21 08:26:34;;;;;;;20.70;9.20;;;;;;;12.58;59.78;96735.16;5004881;28;20074;-58
2022/02/21 08:29:01;;;;;;;18.50;9.30;;;;;;;12.52;57.23;96647.78;5010781;28;20045;-59
2022/02/21 08:31:28;;;;;;;22.95;11.35;;;;;;;13.03;56.77;96730.94;5016819;28;20133;-56
2022/02/21 08:33:54;;;;;;;28.90;13.95;;;;;;;12.07;56.35;96504.06;5016009;28;20060;-58
2022/02/21 08:36:24;;;;;;;20.98;10.18;;;;;;;13.56;55.61;96649.09;5012922;28;20251;-56
2022/02/21 08:38:51;;;;;;;17.60;9.20;;;;;;;13.91;52.59;96655.81;5025994;28;20061;-57
2022/02/21 08:41:18;;;;;;;15.07;8.23;;;;;;;14.13;53.58;96704.72;5033065;28;20045;-62
2022/02/21 08:43:45;;;;;;;15.38;8.60;;;;;;;13.61;53.01;96679.31;5022566;28;20176;-59
2022/02/21 08:46:12;;;;;;;16.38;8.52;;;;;;;14.18;52.36;96698.72;5003917;28;20081;-57
2022/02/21 08:48:58;;;;;;;15.02;8.25;;;;;;;14.33;51.91;96686.38;5013196;28;20050;-57
2022/02/21 08:51:26;;;;;;;16.55;9.07;;;;;;;14.94;50.27;96688.47;5005803;28;20049;-56
2022/02/21 08:53:53;;;;;;;16.92;8.30;;;;;;;14.37;49.62;96525.56;5003126;28;20059;-58
2022/02/21 08:56:20;;;;;;;14.93;7.85;;;;;;;15.14;49.75;96681.19;5004410;28;20941;-59
2022/02/21 08:58:48;;;;;;;16.33;8.07;;;;;;;15.00;49.35;96661.75;5003725;28;20443;-56
2022/02/21 09:01:14;;;;;;;17.80;9.55;;;;;;;14.83;50.32;96676.56;5005880;28;20618;-55
2022/02/21 09:03:41;;;;;;;17.58;7.82;;;;;;;13.88;51.93;96676.13;5007327;28;20109;-56
2022/02/21 09:06:09;;;;;;;12.98;7.63;;;;;;;13.88;51.71;96642.72;5001525;28;20075;-62
2022/02/21 09:08:37;;;;;;;14.77;8.77;;;;;;;13.84;52.23;96608.50;4996448;28;20483;-59
2022/02/21 09:11:04;;;;;;;26.92;13.93;;;;;;;14.27;51.40;96648.97;4997052;28;20049;-60
2022/02/21 09:13:30;;;;;;;20.23;9.57;;;;;;;13.70;52.65;96646.28;5002337;28;20156;-58
2022/02/21 09:15:57;;;;;;;19.60;11.10;;;;;;;14.07;52.50;96639.47;5001982;28;20049;-59
2022/02/21 09:18:24;;;;;;;24.15;10.57;;;;;;;14.19;52.21;96641.81;4998002;28;20049;-62
2022/02/21 09:20:52;;;;;;;15.75;8.50;;;;;;;13.50;53.14;96634.00;4995395;28;20136;-55
2022/02/21 09:23:20;;;;;;;22.15;9.75;;;;;;;13.33;54.32;96640.38;4994131;28;20053;-55
2022/02/21 09:25:47;;;;;;;16.95;9.85;;;;;;;13.49;53.27;96598.25;4994785;28;20053;-60
2022/02/21 09:28:14;;;;;;;17.73;7.97;;;;;;;12.68;54.38;96525.16;4993429;28;20666;-55
2022/02/21 09:30:41;;;;;;;13.77;7.38;;;;;;;13.58;54.18;96607.75;4998157;28;20060;-60
2022/02/21 09:33:08;;;;;;;19.30;7.78;;;;;;;13.85;52.94;96626.81;5001468;28;20102;-56
2022/02/21 09:35:35;;;;;;;16.55;8.30;;;;;;;13.42;53.17;96526.69;5000135;28;20088;-61
2022/02/21 09:38:02;;;;;;;15.68;8.52;;;;;;;14.22;52.49;96602.00;5016947;28;20058;-61
2022/02/21 09:40:29;;;;;;;15.77;8.10;;;;;;;14.30;52.80;96603.59;5013112;28;20079;-61
2022/02/21 09:42:59;;;;;;;13.38;8.05;;;;;;;14.36;51.37;96557.38;5009986;28;20057;-62
2022/02/21 09:45:29;;;;;;;17.15;7.72;;;;;;;14.47;51.60;96591.56;5010148;28;20061;-56
2022/02/21 09:47:57;;;;;;;18.25;8.07;;;;;;;14.75;50.82;96583.00;5023695;28;20132;-56
2022/02/21 09:50:44;;;;;;;14.52;7.05;;;;;;;14.11;52.16;96556.69;5020213;28;20049;-56
2022/02/21 09:53:11;;;;;;;15.18;7.97;;;;;;;13.11;54.10;96544.25;5021632;28;20057;-60
2022/02/21 09:55:39;;;;;;;16.60;7.80;;;;;;;11.24;55.46;96292.59;5021433;28;20057;-61
2022/02/21 09:58:06;;;;;;;19.45;7.47;;;;;;;13.09;54.74;96540.25;5015327;28;20483;-57
2022/02/21 10:00:33;;;;;;;19.48;7.30;;;;;;;13.66;54.21;96592.63;5038819;28;20136;-59
2022/02/21 10:03:00;;;;;;;12.93;7.47;;;;;;;13.76;54.15;96590.22;5028858;28;20131;-58
2022/02/21 10:05:30;;;;;;;15.50;7.22;;;;;;;14.24;52.84;96577.31;5003278;28;20058;-56
2022/02/21 10:07:57;;;;;;;9.88;6.15;;;;;;;14.61;51.88;96569.97;5002947;28;20069;-59
2022/02/21 10:10:25;;;;;;;10.60;7.03;;;;;;;15.00;51.25;96564.13;5003692;28;20064;-58
2022/02/21 10:13:00;;;;;;;11.52;7.00;;;;;;;15.40;50.54;96552.22;5003159;28;20088;-59
2022/02/21 10:15:29;;;;;;;10.57;6.55;;;;;;;15.22;50.07;96511.72;5003142;28;20133;-57
2022/02/21 10:18:17;;;;;;;12.95;7.05;;;;;;;15.93;49.19;96544.06;5003015;28;20057;-59
2022/02/21 10:20:59;;;;;;;17.25;8.68;;;;;;;16.19;48.61;96546.16;5003374;28;20045;-59
2022/02/21 10:23:30;;;;;;;13.75;7.43;;;;;;;16.29;47.89;96539.63;5003104;28;20046;-60
2022/02/21 10:26:03;;;;;;;17.17;7.55;;;;;;;16.04;49.05;96528.00;5003544;28;20069;-56
2022/02/21 10:28:31;;;;;;;14.77;7.50;;;;;;;15.82;49.28;96521.03;5010432;28;20149;-57
2022/02/21 10:31:20;;;;;;;10.85;6.65;;;;;;;15.89;48.98;96509.00;5006436;28;20060;-61
2022/02/21 10:34:07;;;;;;;10.57;5.90;;;;;;;15.16;49.92;96505.78;5016947;28;20052;-58
2022/02/21 10:36:38;;;;;;;10.63;6.25;;;;;;;15.30;50.16;96500.06;5020071;28;20420;-57
2022/02/21 10:39:14;;;;;;;14.15;6.72;;;;;;;15.64;49.49;96498.13;5018959;28;20049;-60
2022/02/21 10:41:50;;;;;;;14.65;6.93;;;;;;;14.67;51.42;96472.75;5018194;28;20050;-56
2022/02/21 10:44:28;;;;;;;12.07;6.35;;;;;;;15.40;50.29;96482.44;5026832;28;20435;-63
2022/02/21 10:47:18;;;;;;;10.52;5.88;;;;;;;15.53;49.77;96468.75;5025324;28;20049;-61
2022/02/21 10:49:52;;;;;;;12.02;6.38;;;;;;;15.76;49.62;96464.06;5008126;28;20060;-57
2022/02/21 10:52:30;;;;;;;12.80;5.88;;;;;;;15.37;50.17;96441.38;5022359;28;20049;-62
2022/02/21 10:54:58;;;;;;;16.00;6.68;;;;;;;15.89;49.66;96437.19;5026462;28;20537;-58
2022/02/21 10:57:28;;;;;;;10.05;6.38;;;;;;;16.44;48.42;96423.63;5024215;28;20083;-55
2022/02/21 10:59:56;;;;;;;9.52;5.82;;;;;;;17.11;47.61;96428.06;5026383;28;20057;-61
2022/02/21 11:02:23;;;;;;;10.93;6.47;;;;;;;17.53;46.42;96420.91;5024016;28;20053;-58
2022/02/21 11:04:51;;;;;;;14.95;6.57;;;;;;;17.04;47.28;96416.22;5005935;28;20590;-57
2022/02/21 11:07:20;;;;;;;11.65;6.60;;;;;;;17.41;46.51;96407.50;5005608;28;20089;-60
2022/02/21 11:09:47;;;;;;;9.40;5.40;;;;;;;16.89;46.75;96403.69;5020280;28;20050;-55
2022/02/21 11:12:17;;;;;;;15.25;7.70;;;;;;;16.00;48.91;96337.25;5031378;28;20059;-57
2022/02/21 11:14:45;;;;;;;13.10;6.65;;;;;;;16.31;48.33;96352.72;5016229;28;20064;-61
2022/02/21 11:17:12;;;;;;;8.43;5.90;;;;;;;17.03;46.83;96397.84;5006069;28;20061;-59
2022/02/21 11:19:43;;;;;;;9.82;5.57;;;;;;;15.86;49.36;96387.75;5013168;28;20133;-56
2022/02/21 11:22:10;;;;;;;12.63;6.78;;;;;;;16.17;49.17;96364.13;5037846;28;20144;-56
2022/02/21 11:24:48;;;;;;;11.55;5.80;;;;;;;16.49;48.51;96381.22;5013983;28;20053;-61
2022/02/21 11:27:31;;;;;;;11.02;6.30;;;;;;;16.15;49.14;96366.56;5020569;28;20057;-62